Time;durP1;ratioP1;P1;durP2;ratioP2;P2;SDS_P1;SDS_P2;PMS_P1;PMS_P2;Temp;Humidity;BMP_temperature;BMP_pressure;BME280_temperature;BME280_humidity;BME280_pressure;Samples;Min_cycle;Max_cycle;Signal;HPM_P1;HPM_P2
2023/05/03 00:00:27;;;;;;;10.73;6.00;;;6.80;82.30;;;;;;6158788;22;88893;-80
2023/05/03 00:02:52;;;;;;;15.93;5.90;;;6.70;82.50;;;;;;6184775;22;88462;-80
2023/05/03 00:05:19;;;;;;;12.00;5.22;;;6.70;83.00;;;;;;6159245;22;91194;-80
2023/05/03 00:07:45;;;;;;;13.40;5.38;;;6.70;83.00;;;;;;6185782;22;87578;-80
2023/05/03 00:10:12;;;;;;;17.02;5.35;;;6.60;82.90;;;;;;6161130;22;88947;-81
2023/05/03 00:12:39;;;;;;;8.95;5.20;;;6.60;82.80;;;;;;6187623;22;89063;-80
2023/05/03 00:15:05;;;;;;;11.73;5.53;;;6.60;82.50;;;;;;6161113;22;92104;-80
2023/05/03 00:17:31;;;;;;;9.10;5.05;;;6.50;83.40;;;;;;6162862;22;87475;-80
2023/05/03 00:19:58;;;;;;;16.17;5.55;;;6.50;83.40;;;;;;6189063;22;87300;-80
2023/05/03 00:22:24;;;;;;;15.93;5.80;;;6.50;82.60;;;;;;6189034;22;87418;-80
2023/05/03 00:24:50;;;;;;;11.75;5.43;;;6.50;84.20;;;;;;6188262;22;88413;-80
2023/05/03 00:27:16;;;;;;;11.35;5.68;;;6.50;83.50;;;;;;6161509;22;87423;-80
2023/05/03 00:29:42;;;;;;;15.93;5.47;;;6.40;84.00;;;;;;6188092;22;87216;-79
2023/05/03 00:32:09;;;;;;;10.98;5.45;;;6.30;84.00;;;;;;6189384;22;87591;-80
2023/05/03 00:34:36;;;;;;;12.93;5.38;;;6.30;82.80;;;;;;6160861;22;91465;-80
2023/05/03 00:37:01;;;;;;;13.48;4.78;;;6.30;83.90;;;;;;6162357;22;88439;-80
2023/05/03 00:39:31;;;;;;;16.95;5.53;;;6.30;83.90;;;;;;6162379;22;89133;-80
2023/05/03 00:41:57;;;;;;;13.82;5.35;;;6.20;85.30;;;;;;6188850;22;88639;-80
2023/05/03 00:44:23;;;;;;;13.98;5.78;;;6.20;84.80;;;;;;6163518;22;91141;-80
2023/05/03 00:46:49;;;;;;;12.18;4.93;;;6.10;86.30;;;;;;6161982;22;87689;-80
2023/05/03 00:49:15;;;;;;;12.88;5.45;;;6.10;85.00;;;;;;6161743;22;90272;-80
2023/05/03 00:51:41;;;;;;;11.88;4.85;;;6.00;85.40;;;;;;6188936;22;88198;-80
2023/05/03 00:54:09;;;;;;;13.43;6.00;;;6.00;85.10;;;;;;6162337;22;90447;-80
2023/05/03 00:56:36;;;;;;;11.43;6.05;;;6.00;85.30;;;;;;6161258;22;87512;-80
2023/05/03 00:59:02;;;;;;;15.07;6.18;;;6.00;87.20;;;;;;6161106;22;95179;-80
2023/05/03 01:01:29;;;;;;;10.27;5.00;;;6.00;87.30;;;;;;6160602;22;91637;-80
2023/05/03 01:03:55;;;;;;;14.23;5.55;;;5.90;87.20;;;;;;6161569;22;92217;-80
2023/05/03 01:06:36;;;;;;;12.65;5.20;;;5.90;87.80;;;;;;6162193;22;86981;-80
2023/05/03 01:09:11;;;;;;;17.63;5.60;;;5.90;87.10;;;;;;6162796;22;89631;-80
2023/05/03 01:12:11;;;;;;;14.20;5.78;;;5.90;86.60;;;;;;6162586;22;91539;-80
2023/05/03 01:15:01;;;;;;;11.85;5.60;;;5.80;87.30;;;;;;6162237;22;89988;-80
2023/05/03 01:17:37;;;;;;;17.35;5.85;;;5.80;87.80;;;;;;6163130;22;87337;-81
2023/05/03 01:20:12;;;;;;;12.40;5.22;;;5.70;87.20;;;;;;6190062;22;91322;-80
2023/05/03 01:23:03;;;;;;;14.07;6.28;;;5.70;87.70;;;;;;6161742;22;91148;-80
2023/05/03 01:25:29;;;;;;;14.45;5.80;;;5.70;87.60;;;;;;6162338;22;91855;-80
2023/05/03 01:27:55;;;;;;;13.20;5.85;;;5.60;86.90;;;;;;6188423;22;88449;-80
2023/05/03 01:30:24;;;;;;;15.40;6.05;;;5.60;87.70;;;;;;6188846;22;87683;-80
2023/05/03 01:32:55;;;;;;;12.25;6.07;;;5.50;88.20;;;;;;6189146;22;88032;-80
2023/05/03 01:35:30;;;;;;;13.40;6.43;;;5.50;88.40;;;;;;6189334;22;88314;-80
2023/05/03 01:37:56;;;;;;;8.48;4.82;;;5.50;88.50;;;;;;6161840;22;87888;-80
2023/05/03 01:40:26;;;;;;;11.60;5.72;;;5.40;87.80;;;;;;6189156;22;87420;-80
2023/05/03 01:42:55;;;;;;;9.93;5.80;;;5.40;88.50;;;;;;6161063;22;91235;-80
2023/05/03 01:45:21;;;;;;;14.15;6.03;;;5.30;88.40;;;;;;6161813;22;91126;-80
2023/05/03 01:47:47;;;;;;;13.80;5.82;;;5.30;88.60;;;;;;6189339;22;87271;-81
2023/05/03 01:50:13;;;;;;;10.23;5.30;;;5.30;88.70;;;;;;6162145;22;90128;-80
2023/05/03 01:52:38;;;;;;;10.68;5.97;;;5.30;88.80;;;;;;6160477;22;92504;-80
2023/05/03 01:55:05;;;;;;;13.07;5.38;;;5.20;89.50;;;;;;6161429;22;90653;-80
2023/05/03 01:57:31;;;;;;;12.77;6.05;;;5.20;90.00;;;;;;6160782;22;87454;-80
2023/05/03 01:59:56;;;;;;;16.05;5.80;;;5.20;90.20;;;;;;6189082;22;88911;-80
2023/05/03 02:02:22;;;;;;;16.67;6.50;;;5.10;90.10;;;;;;6162181;22;91903;-80
2023/05/03 02:04:48;;;;;;;10.63;5.93;;;5.10;90.40;;;;;;6161283;22;90110;-80
2023/05/03 02:07:14;;;;;;;17.50;6.45;;;5.10;90.40;;;;;;6187588;22;87463;-80
2023/05/03 02:09:40;;;;;;;12.52;5.85;;;5.00;90.50;;;;;;6161840;22;89992;-80
2023/05/03 02:12:05;;;;;;;12.00;6.20;;;5.00;90.40;;;;;;6161480;22;90549;-80
2023/05/03 02:14:31;;;;;;;11.88;5.82;;;5.00;90.40;;;;;;6189523;22;88281;-80
2023/05/03 02:16:57;;;;;;;10.25;6.28;;;5.00;90.20;;;;;;6161255;22;88304;-80
2023/05/03 02:19:23;;;;;;;14.30;6.13;;;4.90;90.30;;;;;;6161591;22;90426;-81
2023/05/03 02:21:49;;;;;;;11.25;5.85;;;4.90;90.40;;;;;;6161301;22;90870;-80
2023/05/03 02:24:15;;;;;;;12.85;6.13;;;5.00;90.60;;;;;;6162066;22;90601;-80
2023/05/03 02:26:41;;;;;;;13.80;6.35;;;4.90;90.50;;;;;;6162469;22;87253;-81
2023/05/03 02:29:07;;;;;;;10.52;5.75;;;4.90;90.60;;;;;;6162721;22;89079;-80
2023/05/03 02:31:32;;;;;;;11.15;6.25;;;4.80;90.50;;;;;;6188798;22;88609;-80
2023/05/03 02:33:58;;;;;;;11.65;6.15;;;4.80;90.60;;;;;;6162165;22;90740;-80
2023/05/03 02:36:24;;;;;;;11.77;6.57;;;4.80;90.80;;;;;;6161871;22;87547;-80
2023/05/03 02:38:49;;;;;;;16.92;6.68;;;4.70;90.90;;;;;;6188752;22;87357;-80
2023/05/03 02:41:15;;;;;;;15.27;5.72;;;4.70;91.10;;;;;;6188994;22;88495;-80
2023/05/03 02:43:41;;;;;;;13.55;6.20;;;4.60;90.90;;;;;;6160986;22;92479;-80
2023/05/03 02:46:06;;;;;;;10.00;5.47;;;4.60;91.00;;;;;;6188059;22;87572;-80
2023/05/03 02:48:32;;;;;;;10.55;6.55;;;4.50;91.20;;;;;;6188186;22;87478;-80
2023/05/03 02:50:58;;;;;;;13.48;5.82;;;4.50;90.90;;;;;;6187687;22;88606;-80
2023/05/03 02:53:23;;;;;;;17.77;6.03;;;4.50;90.70;;;;;;6189293;22;87437;-80
2023/05/03 02:55:49;;;;;;;12.77;6.30;;;4.50;90.80;;;;;;6161255;22;87343;-80
2023/05/03 02:58:15;;;;;;;16.45;7.28;;;4.40;91.10;;;;;;6187877;22;87401;-80
2023/05/03 03:00:41;;;;;;;11.50;6.28;;;4.30;91.30;;;;;;6188169;22;88214;-80
2023/05/03 03:03:06;;;;;;;13.98;6.88;;;4.30;91.50;;;;;;6161236;22;90956;-80
2023/05/03 03:05:32;;;;;;;15.00;6.90;;;4.30;91.40;;;;;;6188656;22;88269;-80
2023/05/03 03:07:58;;;;;;;13.40;6.43;;;4.20;91.40;;;;;;6188384;22;87462;-80
2023/05/03 03:10:23;;;;;;;11.73;6.50;;;4.20;91.80;;;;;;6160715;22;91342;-80
2023/05/03 03:12:49;;;;;;;13.82;6.10;;;4.20;91.50;;;;;;6160301;22;91385;-80
2023/05/03 03:15:15;;;;;;;13.07;6.55;;;4.20;91.70;;;;;;6187726;22;87450;-80
2023/05/03 03:17:41;;;;;;;14.23;7.07;;;4.10;91.60;;;;;;6161051;22;88952;-79
2023/05/03 03:20:11;;;;;;;13.90;8.13;;;4.10;91.90;;;;;;6161722;22;90974;-80
2023/05/03 03:22:37;;;;;;;15.35;7.60;;;4.10;92.20;;;;;;6162480;22;91674;-80
2023/05/03 03:25:05;;;;;;;15.52;7.50;;;4.10;92.00;;;;;;6163197;22;87066;-80
2023/05/03 03:27:31;;;;;;;14.15;7.32;;;4.00;92.00;;;;;;6193028;22;87355;-80
2023/05/03 03:29:57;;;;;;;15.05;6.30;;;4.00;91.80;;;;;;6171160;22;92295;-80
2023/05/03 03:32:23;;;;;;;13.80;7.18;;;4.10;91.60;;;;;;6175489;22;91979;-80
2023/05/03 03:34:48;;;;;;;16.10;7.32;;;4.00;91.60;;;;;;6175191;22;87525;-80
2023/05/03 03:37:14;;;;;;;17.35;7.60;;;4.00;91.70;;;;;;6174092;22;89204;-80
2023/05/03 03:39:40;;;;;;;13.80;7.47;;;4.00;91.80;;;;;;6168567;22;91201;-80
2023/05/03 03:42:06;;;;;;;14.82;7.15;;;4.00;92.00;;;;;;6167374;22;90531;-80
2023/05/03 03:44:32;;;;;;;13.70;7.03;;;3.90;91.70;;;;;;6194406;22;87426;-80
2023/05/03 03:46:58;;;;;;;15.23;7.35;;;3.90;91.80;;;;;;6194723;22;87229;-80
2023/05/03 03:49:24;;;;;;;13.27;7.43;;;3.80;91.80;;;;;;6187819;22;87607;-80
2023/05/03 03:51:50;;;;;;;13.38;7.40;;;3.80;92.00;;;;;;6159529;22;90043;-80
2023/05/03 03:54:15;;;;;;;15.35;7.90;;;3.80;91.90;;;;;;6185831;22;88338;-80
2023/05/03 03:56:41;;;;;;;14.65;7.32;;;3.80;92.10;;;;;;6160519;22;93412;-80
2023/05/03 03:59:07;;;;;;;14.90;8.10;;;3.80;92.20;;;;;;6162159;22;91369;-80
2023/05/03 04:01:33;;;;;;;13.50;8.02;;;3.70;92.10;;;;;;6189520;22;87487;-80
2023/05/03 04:03:59;;;;;;;19.13;8.48;;;3.70;92.10;;;;;;6161417;22;89255;-80
2023/05/03 04:06:25;;;;;;;16.73;8.00;;;3.70;92.50;;;;;;6161377;22;89724;-80
2023/05/03 04:08:51;;;;;;;22.88;9.13;;;3.60;92.50;;;;;;6161212;22;91477;-80
2023/05/03 04:11:17;;;;;;;13.95;8.05;;;3.70;92.60;;;;;;6190042;22;87799;-80
2023/05/03 04:13:43;;;;;;;14.55;8.38;;;3.60;92.60;;;;;;6189183;22;87559;-80
2023/05/03 04:16:08;;;;;;;14.90;7.90;;;3.60;92.80;;;;;;6160701;22;89497;-80
2023/05/03 04:18:34;;;;;;;19.35;8.15;;;3.60;92.80;;;;;;6160563;22;92158;-80
2023/05/03 04:21:00;;;;;;;13.82;8.25;;;3.50;92.90;;;;;;6162048;22;90532;-80
2023/05/03 04:23:26;;;;;;;16.00;8.48;;;3.50;92.80;;;;;;6191320;22;87042;-80
2023/05/03 04:25:51;;;;;;;18.13;8.20;;;3.50;92.80;;;;;;6195444;22;87312;-80
2023/05/03 04:28:18;;;;;;;16.33;9.32;;;3.60;93.10;;;;;;6175085;22;90919;-80
2023/05/03 04:30:45;;;;;;;14.95;7.82;;;3.60;92.90;;;;;;6173366;22;89861;-80
2023/05/03 04:33:12;;;;;;;16.38;8.25;;;3.60;92.90;;;;;;6165624;22;87627;-81
2023/05/03 04:35:38;;;;;;;19.35;8.45;;;3.60;92.80;;;;;;6192582;22;86752;-79
2023/05/03 04:38:04;;;;;;;20.88;8.68;;;3.60;92.60;;;;;;6164278;22;91494;-80
2023/05/03 04:40:30;;;;;;;18.63;8.13;;;3.60;93.30;;;;;;6160633;22;91143;-80
2023/05/03 04:42:56;;;;;;;20.38;9.13;;;3.70;93.20;;;;;;6159713;22;88341;-80
2023/05/03 04:45:22;;;;;;;17.50;8.65;;;3.70;93.10;;;;;;6160231;22;90115;-80
2023/05/03 04:47:48;;;;;;;21.90;8.93;;;3.70;93.30;;;;;;6188118;22;87234;-80
2023/05/03 04:50:14;;;;;;;16.90;8.75;;;3.70;93.20;;;;;;6188678;22;88023;-80
2023/05/03 04:52:39;;;;;;;21.00;9.48;;;3.80;93.30;;;;;;6160908;22;87562;-80
2023/05/03 04:55:05;;;;;;;17.92;9.65;;;3.80;93.40;;;;;;6160280;22;89385;-79
2023/05/03 04:57:33;;;;;;;15.00;8.57;;;3.90;93.60;;;;;;6160492;22;91481;-80
2023/05/03 04:59:58;;;;;;;16.55;9.15;;;3.90;93.40;;;;;;6188175;22;88697;-80
2023/05/03 05:02:25;;;;;;;17.52;9.73;;;3.90;93.50;;;;;;6162087;22;87436;-80
2023/05/03 05:04:52;;;;;;;18.92;9.23;;;4.00;93.40;;;;;;6164197;22;90547;-80
2023/05/03 05:07:17;;;;;;;18.13;9.80;;;4.10;93.40;;;;;;6163283;22;91520;-81
2023/05/03 05:09:43;;;;;;;16.55;9.75;;;4.10;93.00;;;;;;6161476;22;91608;-80
2023/05/03 05:12:09;;;;;;;24.10;10.43;;;4.20;93.10;;;;;;6189539;22;87366;-80
2023/05/03 05:14:34;;;;;;;20.00;11.63;;;4.20;93.30;;;;;;6189217;22;87456;-80
2023/05/03 05:17:00;;;;;;;17.70;10.43;;;4.30;93.70;;;;;;6186423;22;88437;-80
2023/05/03 05:19:26;;;;;;;23.80;10.63;;;4.40;93.70;;;;;;6184244;22;88554;-81
2023/05/03 05:21:52;;;;;;;20.80;10.00;;;4.50;93.70;;;;;;6183734;22;87202;-80
2023/05/03 05:24:17;;;;;;;20.63;11.13;;;4.50;93.80;;;;;;6187261;22;87752;-80
2023/05/03 05:26:43;;;;;;;21.00;11.30;;;4.60;93.70;;;;;;6160840;22;91964;-80
2023/05/03 05:29:09;;;;;;;21.58;11.13;;;4.70;93.50;;;;;;6190554;22;87963;-80
2023/05/03 05:31:35;;;;;;;22.50;10.90;;;4.80;93.40;;;;;;6187679;22;88702;-80
2023/05/03 05:34:01;;;;;;;23.98;11.00;;;5.00;93.20;;;;;;6186166;22;88806;-80
2023/05/03 05:39:24;;;;;;;23.73;10.70;;;5.20;93.10;;;;;;6187826;22;89722;-80
2023/05/03 05:41:50;;;;;;;19.70;10.88;;;5.30;93.00;;;;;;6190579;22;87641;-78
2023/05/03 05:44:17;;;;;;;19.67;10.45;;;5.40;92.80;;;;;;6200917;22;87819;-81
2023/05/03 05:46:43;;;;;;;19.65;11.30;;;5.50;92.60;;;;;;6202408;22;88196;-81
2023/05/03 05:49:09;;;;;;;19.02;11.32;;;5.60;92.60;;;;;;6180854;22;91040;-81
2023/05/03 05:51:35;;;;;;;23.27;11.63;;;5.70;92.50;;;;;;6172503;22;87539;-81
2023/05/03 05:54:03;;;;;;;19.92;11.45;;;5.80;92.50;;;;;;6160205;22;91094;-81
2023/05/03 05:56:29;;;;;;;21.10;11.52;;;6.00;92.40;;;;;;6196267;22;91212;-82
2023/05/03 05:59:00;;;;;;;22.80;10.75;;;6.10;91.80;;;;;;6175358;22;90964;-80
2023/05/03 06:01:25;;;;;;;19.20;10.73;;;6.20;91.70;;;;;;6167763;22;87405;-81
2023/05/03 06:03:51;;;;;;;19.17;11.05;;;6.30;91.60;;;;;;6166009;22;91236;-81
2023/05/03 06:06:17;;;;;;;21.33;11.93;;;6.40;91.30;;;;;;6167997;22;91110;-81
2023/05/03 06:08:42;;;;;;;21.05;11.85;;;6.60;91.40;;;;;;6164635;22;91440;-80
2023/05/03 06:11:08;;;;;;;23.92;12.00;;;6.70;91.20;;;;;;6189461;22;87478;-80
2023/05/03 06:13:37;;;;;;;18.13;11.25;;;6.80;90.50;;;;;;6159958;22;90314;-80
2023/05/03 06:16:03;;;;;;;23.05;11.73;;;6.90;90.70;;;;;;6187992;22;88603;-81
2023/05/03 06:18:29;;;;;;;20.52;10.55;;;7.10;90.40;;;;;;6186183;22;87833;-80
2023/05/03 06:20:55;;;;;;;20.83;11.45;;;7.20;89.70;;;;;;6156735;22;88589;-80
2023/05/03 06:23:21;;;;;;;18.05;10.50;;;7.30;90.00;;;;;;6161008;22;90386;-80
2023/05/03 06:25:46;;;;;;;18.60;10.50;;;7.40;89.10;;;;;;6160510;22;91778;-80
2023/05/03 06:28:12;;;;;;;18.42;10.43;;;7.50;88.20;;;;;;6189351;22;87321;-81
2023/05/03 06:30:40;;;;;;;20.48;10.85;;;7.60;87.90;;;;;;6188188;22;87309;-81
2023/05/03 06:33:11;;;;;;;22.90;11.05;;;7.70;87.60;;;;;;6161847;22;89184;-82
2023/05/03 06:35:37;;;;;;;20.42;10.75;;;7.90;87.40;;;;;;6163691;22;90282;-79
2023/05/03 06:38:03;;;;;;;22.00;11.15;;;8.00;86.80;;;;;;6165151;22;95833;-80
2023/05/03 07:16:47;;;;;;;21.10;10.57;;;10.10;76.00;;;;;;6139685;22;88880;-81
2023/05/03 07:19:18;;;;;;;20.25;10.80;;;10.20;75.80;;;;;;6161753;22;88162;-82
2023/05/03 07:21:44;;;;;;;21.63;10.40;;;10.30;76.80;;;;;;6194198;22;87421;-81
2023/05/03 07:26:45;;;;;;;21.58;11.32;;;10.70;75.50;;;;;;6124877;22;89080;-81
2023/05/03 07:29:11;;;;;;;20.95;10.70;;;10.80;74.80;;;;;;6162861;22;94529;-82
2023/05/03 07:31:37;;;;;;;22.17;11.80;;;11.00;75.60;;;;;;6191684;22;87441;-81
2023/05/03 07:34:03;;;;;;;20.92;10.25;;;11.20;73.30;;;;;;6161299;22;93865;-79
2023/05/03 07:36:49;;;;;;;20.20;11.13;;;11.30;72.60;;;;;;6184759;22;89073;-79
2023/05/03 07:39:18;;;;;;;16.83;10.93;;;11.50;72.00;;;;;;6158344;22;92263;-79
2023/05/03 07:41:44;;;;;;;21.08;11.35;;;11.60;71.80;;;;;;6157195;22;87558;-78
2023/05/03 07:44:09;;;;;;;18.08;10.35;;;11.70;69.70;;;;;;6185952;22;87163;-79
2023/05/03 07:46:35;;;;;;;22.20;11.77;;;11.90;69.40;;;;;;6185885;22;88340;-79
2023/05/03 07:49:03;;;;;;;23.27;10.70;;;12.00;67.90;;;;;;6185622;22;88853;-79
2023/05/03 07:51:28;;;;;;;18.75;10.80;;;12.20;66.90;;;;;;6185897;22;87548;-79
2023/05/03 07:53:57;;;;;;;20.02;10.25;;;12.30;68.40;;;;;;6185735;22;87413;-78
2023/05/03 07:56:23;;;;;;;19.52;10.50;;;12.50;68.00;;;;;;6186119;22;88532;-77
2023/05/03 07:58:48;;;;;;;22.73;10.93;;;12.70;66.00;;;;;;6185400;22;88344;-79
2023/05/03 08:01:14;;;;;;;23.35;10.98;;;12.90;65.90;;;;;;6185518;22;88438;-78
2023/05/03 08:03:40;;;;;;;18.75;11.05;;;13.00;65.60;;;;;;6185794;22;87841;-79
2023/05/03 08:06:06;;;;;;;18.35;11.00;;;13.20;64.50;;;;;;6185660;22;87599;-79
2023/05/03 08:08:32;;;;;;;18.02;10.90;;;13.40;64.40;;;;;;6159795;22;91991;-78
2023/05/03 08:10:58;;;;;;;18.83;11.00;;;13.60;63.60;;;;;;6159165;22;87479;-79
2023/05/03 08:13:24;;;;;;;20.50;10.18;;;13.60;60.80;;;;;;6159308;22;88826;-78
2023/05/03 08:15:49;;;;;;;14.25;8.50;;;13.80;62.00;;;;;;6185689;22;87761;-78
2023/05/03 08:18:15;;;;;;;23.02;10.63;;;14.00;63.30;;;;;;6188698;22;87348;-79
2023/05/03 08:20:41;;;;;;;20.65;11.13;;;14.20;61.60;;;;;;6185438;22;87633;-78
2023/05/03 08:23:07;;;;;;;17.58;9.90;;;14.50;63.30;;;;;;6198672;22;87435;-81
2023/05/03 08:28:08;;;;;;;23.95;10.20;;;14.90;59.10;;;;;;6186247;22;89784;-80
2023/05/03 08:30:34;;;;;;;19.27;10.63;;;15.00;58.30;;;;;;6194567;22;87637;-80
2023/05/03 08:33:02;;;;;;;17.08;8.77;;;15.10;56.90;;;;;;6206126;22;87459;-81
2023/05/03 08:35:28;;;;;;;17.30;9.38;;;15.20;56.70;;;;;;6199961;22;87804;-82
2023/05/03 08:37:55;;;;;;;17.98;9.10;;;15.30;55.00;;;;;;6196488;22;87749;-81
2023/05/03 08:40:27;;;;;;;18.60;10.10;;;15.40;56.90;;;;;;6203077;22;87045;-81
2023/05/03 08:42:58;;;;;;;19.35;10.23;;;15.60;56.20;;;;;;6213384;22;86299;-82
2023/05/03 08:45:25;;;;;;;20.55;9.65;;;15.70;55.90;;;;;;6209121;22;87851;-81
2023/05/03 08:47:54;;;;;;;17.15;9.48;;;15.80;54.50;;;;;;6184226;22;89060;-82
2023/05/03 08:50:20;;;;;;;16.95;8.30;;;16.00;52.30;;;;;;6185309;22;88393;-82
2023/05/03 08:52:46;;;;;;;12.82;7.97;;;16.00;52.50;;;;;;6166637;22;88586;-81
2023/05/03 08:55:13;;;;;;;19.48;10.18;;;16.00;52.80;;;;;;6182143;22;90086;-81
2023/05/03 08:57:40;;;;;;;13.48;8.65;;;16.20;54.30;;;;;;6181036;22;87834;-82
2023/05/03 09:00:09;;;;;;;14.43;9.18;;;16.40;54.10;;;;;;6209830;22;86917;-82
2023/05/03 09:02:41;;;;;;;20.92;8.75;;;16.60;53.70;;;;;;6188595;22;90448;-82
2023/05/03 09:05:37;;;;;;;14.15;8.18;;;16.80;52.70;;;;;;6168933;22;94355;-82
2023/05/03 09:10:41;;;;;;;19.38;9.18;;;16.90;51.40;;;;;;6209892;22;86866;-84
2023/05/03 09:13:07;;;;;;;12.32;8.07;;;17.10;52.70;;;;;;6159976;22;88285;-85
2023/05/03 09:15:34;;;;;;;15.55;8.68;;;17.40;51.60;;;;;;6159757;22;92614;-85
2023/05/03 09:18:14;;;;;;;11.15;8.00;;;17.50;49.40;;;;;;6160231;22;90732;-83
2023/05/03 09:20:41;;;;;;;15.38;8.48;;;17.60;50.90;;;;;;6159132;22;87663;-81
2023/05/03 09:23:08;;;;;;;17.10;8.48;;;17.70;49.50;;;;;;6187729;22;87823;-80
2023/05/03 09:25:48;;;;;;;14.25;7.75;;;17.80;51.10;;;;;;6186290;22;88977;-80
2023/05/03 09:28:15;;;;;;;11.82;6.68;;;18.10;49.80;;;;;;6186415;22;88207;-80
2023/05/03 09:30:41;;;;;;;15.45;7.72;;;18.20;49.20;;;;;;6186452;22;87186;-80
2023/05/03 09:33:09;;;;;;;15.43;7.97;;;18.40;50.00;;;;;;6186502;22;87119;-83
2023/05/03 09:35:35;;;;;;;16.35;7.93;;;18.60;49.90;;;;;;6160296;22;90467;-84
2023/05/03 09:38:00;;;;;;;10.57;7.38;;;18.70;47.10;;;;;;6159466;22;91142;-78
2023/05/03 09:40:28;;;;;;;13.77;7.88;;;18.70;49.10;;;;;;6185473;22;88517;-87
2023/05/03 09:43:10;;;;;;;13.27;7.78;;;18.80;47.40;;;;;;6186170;22;93132;-84
2023/05/03 09:45:37;;;;;;;14.17;7.23;;;18.90;47.40;;;;;;6159565;22;92069;-85
2023/05/03 09:48:04;;;;;;;13.02;7.78;;;19.10;46.40;;;;;;6159425;22;90780;-84
2023/05/03 09:50:40;;;;;;;16.35;7.55;;;19.00;45.40;;;;;;6161026;22;87566;-84
2023/05/03 09:53:06;;;;;;;13.15;8.50;;;19.00;47.70;;;;;;6187379;22;91513;-84
2023/05/03 09:55:41;;;;;;;13.68;7.75;;;19.20;48.00;;;;;;6159566;22;89690;-83
2023/05/03 09:58:07;;;;;;;13.18;7.28;;;19.40;46.40;;;;;;6187585;22;88268;-84
2023/05/03 10:00:36;;;;;;;15.00;7.05;;;19.60;46.80;;;;;;6160097;22;87765;-83
2023/05/03 10:03:10;;;;;;;12.05;7.65;;;19.80;46.00;;;;;;6186697;22;87655;-84
2023/05/03 10:05:57;;;;;;;11.32;6.43;;;19.70;45.40;;;;;;6160071;22;92092;-84
2023/05/03 10:08:48;;;;;;;11.93;7.10;;;19.90;44.30;;;;;;6186865;22;93926;-83
2023/05/03 10:11:16;;;;;;;15.65;8.02;;;19.90;45.90;;;;;;6159778;22;88705;-83
2023/05/03 10:13:41;;;;;;;11.32;7.05;;;19.90;44.00;;;;;;6159665;22;89556;-84
2023/05/03 10:16:19;;;;;;;13.55;7.60;;;20.10;46.40;;;;;;6159553;22;89042;-84
2023/05/03 10:19:17;;;;;;;10.88;7.13;;;20.30;46.20;;;;;;6159601;22;91467;-81
2023/05/03 10:22:06;;;;;;;12.25;7.32;;;20.70;45.70;;;;;;6158586;22;87296;-82
2023/05/03 10:24:33;;;;;;;11.48;8.23;;;20.90;44.20;;;;;;6186578;22;87322;-82
2023/05/03 10:26:59;;;;;;;10.40;6.60;;;20.90;44.30;;;;;;6158569;22;91778;-81
2023/05/03 10:29:44;;;;;;;11.38;7.13;;;21.00;43.30;;;;;;6159714;22;91241;-84
2023/05/03 10:32:29;;;;;;;13.02;6.82;;;21.30;44.80;;;;;;6159567;22;88693;-84
2023/05/03 10:35:12;;;;;;;10.57;6.53;;;21.50;43.50;;;;;;6160354;22;90507;-83
2023/05/03 10:37:41;;;;;;;9.73;6.88;;;21.70;43.50;;;;;;6159480;22;90944;-83
2023/05/03 10:40:14;;;;;;;10.80;7.53;;;21.80;42.30;;;;;;6159726;22;90501;-84
2023/05/03 10:43:03;;;;;;;12.88;7.32;;;21.90;42.50;;;;;;6160540;22;87456;-87
2023/05/03 10:45:29;;;;;;;9.93;6.75;;;21.90;42.60;;;;;;6159592;22;89027;-87
2023/05/03 10:48:24;;;;;;;11.75;7.78;;;22.20;41.50;;;;;;6159844;22;89201;-88
2023/05/03 10:50:51;;;;;;;12.23;5.82;;;22.20;42.00;;;;;;6127126;22;90282;-85
2023/05/03 10:53:36;;;;;;;10.32;6.65;;;22.30;42.80;;;;;;6160744;22;87474;-88
2023/05/03 10:56:14;;;;;;;9.38;6.70;;;22.60;42.80;;;;;;6158190;22;90233;-87
2023/05/03 10:58:50;;;;;;;6.72;5.47;;;22.80;40.90;;;;;;6157506;22;91223;-89
2023/05/03 11:01:17;;;;;;;12.82;6.80;;;23.00;40.60;;;;;;6157934;22;91923;-86
2023/05/03 11:03:48;;;;;;;11.77;7.00;;;23.20;41.10;;;;;;6158371;22;87367;-89
2023/05/03 11:06:30;;;;;;;11.80;6.68;;;23.30;39.50;;;;;;6160212;22;89819;-86
2023/05/03 11:08:57;;;;;;;8.80;6.40;;;23.40;39.70;;;;;;6160110;22;90958;-87
2023/05/03 11:11:22;;;;;;;9.68;6.78;;;23.50;40.00;;;;;;6159911;22;90849;-82
2023/05/03 11:13:50;;;;;;;12.90;7.38;;;23.60;40.10;;;;;;6159602;22;87518;-86
2023/05/03 11:16:16;;;;;;;12.80;6.82;;;23.80;41.40;;;;;;6159419;22;90245;-88
2023/05/03 11:18:42;;;;;;;10.13;6.53;;;23.90;40.80;;;;;;6156578;22;90079;-83
2023/05/03 11:21:10;;;;;;;13.05;7.47;;;24.10;39.50;;;;;;6156651;22;90901;-81
2023/05/03 11:23:38;;;;;;;11.13;6.60;;;24.10;40.20;;;;;;6184292;22;88284;-83
2023/05/03 11:26:10;;;;;;;10.15;6.20;;;24.00;39.50;;;;;;6159241;22;93134;-84
2023/05/03 11:28:41;;;;;;;11.55;5.90;;;24.20;39.20;;;;;;6158788;22;91043;-84
2023/05/03 11:31:08;;;;;;;11.45;6.22;;;24.30;40.30;;;;;;6158577;22;91160;-82
2023/05/03 11:33:37;;;;;;;11.93;6.50;;;24.60;39.50;;;;;;6159617;22;88090;-86
2023/05/03 11:36:07;;;;;;;11.68;7.68;;;24.60;39.30;;;;;;6156690;22;90251;-81
2023/05/03 11:38:33;;;;;;;12.75;7.30;;;24.60;37.50;;;;;;6186265;22;88155;-81
2023/05/03 11:41:00;;;;;;;9.90;6.15;;;24.80;38.80;;;;;;6158581;22;90632;-84
2023/05/03 11:43:26;;;;;;;12.00;6.55;;;24.90;36.20;;;;;;6158495;22;87749;-81
2023/05/03 11:45:55;;;;;;;13.15;7.75;;;24.70;38.40;;;;;;6186510;22;87584;-81
2023/05/03 11:48:21;;;;;;;14.65;7.45;;;24.80;37.20;;;;;;6157432;22;92040;-81
2023/05/03 11:50:54;;;;;;;14.60;7.57;;;25.00;38.00;;;;;;6158939;22;91567;-81
2023/05/03 11:53:23;;;;;;;13.77;6.30;;;25.00;37.20;;;;;;6159654;22;87484;-82
2023/05/03 11:55:53;;;;;;;14.10;6.90;;;25.40;38.70;;;;;;6187200;22;87516;-84
2023/05/03 11:58:23;;;;;;;10.80;7.15;;;25.70;38.00;;;;;;6159174;22;91203;-87
2023/05/03 12:00:51;;;;;;;13.25;7.80;;;25.70;36.50;;;;;;6159818;22;90714;-77
2023/05/03 12:03:18;;;;;;;13.43;6.90;;;25.50;36.20;;;;;;6186438;22;87862;-83
2023/05/03 12:05:45;;;;;;;17.75;8.05;;;25.70;37.60;;;;;;6159704;22;90518;-83
2023/05/03 12:08:11;;;;;;;9.90;5.50;;;25.80;35.90;;;;;;6188328;22;88349;-82
2023/05/03 12:10:37;;;;;;;12.05;6.13;;;25.60;38.10;;;;;;6184643;22;87270;-83
2023/05/03 12:13:03;;;;;;;8.82;5.50;;;25.80;38.60;;;;;;6158165;22;88416;-83
2023/05/03 12:15:39;;;;;;;9.20;5.63;;;25.80;36.70;;;;;;6159334;22;89089;-80
2023/05/03 12:18:09;;;;;;;10.07;5.63;;;25.90;37.70;;;;;;6159998;22;90791;-83
2023/05/03 12:20:37;;;;;;;10.00;5.78;;;26.00;37.00;;;;;;6187739;22;87490;-82
2023/05/03 12:23:06;;;;;;;8.65;5.18;;;25.80;36.20;;;;;;6160564;22;87577;-83
2023/05/03 12:25:33;;;;;;;8.50;4.50;;;25.40;38.00;;;;;;6159880;22;89250;-82
2023/05/03 12:28:04;;;;;;;9.65;6.57;;;25.60;38.00;;;;;;6159707;22;90256;-86
2023/05/03 12:30:30;;;;;;;13.27;5.25;;;25.80;35.60;;;;;;6160333;22;90340;-85
2023/05/03 12:32:56;;;;;;;9.85;6.30;;;25.60;38.30;;;;;;6160041;22;87268;-84
2023/05/03 12:35:22;;;;;;;15.10;6.38;;;25.90;37.30;;;;;;6161758;22;90206;-85
2023/05/03 12:37:49;;;;;;;12.15;6.20;;;26.20;37.50;;;;;;6159488;22;92475;-83
2023/05/03 12:40:16;;;;;;;8.13;5.10;;;26.50;37.50;;;;;;6160168;22;90674;-84
2023/05/03 12:42:43;;;;;;;12.63;5.25;;;26.60;37.40;;;;;;6160222;22;87367;-84
2023/05/03 12:45:12;;;;;;;12.32;7.20;;;26.90;37.20;;;;;;6161016;22;89243;-84
2023/05/03 12:47:39;;;;;;;9.75;6.18;;;27.00;35.60;;;;;;6161730;22;89410;-86
2023/05/03 12:50:05;;;;;;;8.88;6.25;;;26.90;36.10;;;;;;6161231;22;95090;-86
2023/05/03 12:52:31;;;;;;;7.85;5.10;;;26.90;35.60;;;;;;6160678;22;87237;-86
2023/05/03 12:54:57;;;;;;;7.57;4.80;;;26.90;37.10;;;;;;6160416;22;90018;-86
2023/05/03 12:57:23;;;;;;;6.65;5.30;;;27.20;36.00;;;;;;6160508;22;90184;-84
2023/05/03 12:59:52;;;;;;;10.77;5.95;;;27.40;35.70;;;;;;6160898;22;89834;-87
2023/05/03 13:02:19;;;;;;;9.38;5.07;;;27.50;35.10;;;;;;6159660;22;88402;-86
2023/05/03 13:04:45;;;;;;;10.70;6.90;;;27.40;35.90;;;;;;6158632;22;89830;-86
2023/05/03 13:07:15;;;;;;;8.45;5.50;;;27.30;34.20;;;;;;6187226;22;88959;-88
2023/05/03 13:09:43;;;;;;;11.13;5.60;;;27.40;35.40;;;;;;6159762;22;90836;-87
2023/05/03 13:12:09;;;;;;;10.50;6.55;;;27.30;36.10;;;;;;6157726;22;87451;-85
2023/05/03 13:14:35;;;;;;;8.70;6.90;;;27.40;35.20;;;;;;6160631;22;87807;-85
2023/05/03 13:17:01;;;;;;;13.60;7.45;;;27.40;34.50;;;;;;6158466;22;91156;-85
2023/05/03 13:19:27;;;;;;;12.10;7.53;;;27.40;33.20;;;;;;6156547;22;89911;-83
2023/05/03 13:21:53;;;;;;;7.32;5.43;;;27.30;33.00;;;;;;6158208;22;87561;-82
2023/05/03 13:24:21;;;;;;;11.35;6.70;;;27.40;34.50;;;;;;6157750;22;88896;-84
2023/05/03 13:26:47;;;;;;;8.95;6.40;;;27.70;34.40;;;;;;6158258;22;92522;-84
2023/05/03 13:29:13;;;;;;;8.77;7.05;;;28.10;34.20;;;;;;6159035;22;92166;-85
2023/05/03 13:31:39;;;;;;;12.45;6.97;;;28.10;33.40;;;;;;6160231;22;88784;-85